createdAt,value
2023-02-26T00:01:25.158Z,99.30
2023-02-26T00:03:52.980Z,99.30
2023-02-26T00:06:20.010Z,99.50
2023-02-26T00:08:46.777Z,99.60
2023-02-26T00:11:14.135Z,99.60
2023-02-26T00:13:42.654Z,99.70
2023-02-26T00:16:29.738Z,99.70
2023-02-26T00:18:57.463Z,99.70
2023-02-26T00:21:25.650Z,99.70
2023-02-26T00:23:52.942Z,99.70
2023-02-26T00:26:20.147Z,99.80
2023-02-26T00:28:47.183Z,99.90
2023-02-26T00:31:16.065Z,99.90
2023-02-26T00:33:43.402Z,99.90
2023-02-26T00:36:20.768Z,99.90
2023-02-26T00:38:57.577Z,99.90
2023-02-26T00:41:24.602Z,99.90
2023-02-26T00:43:51.585Z,99.90
2023-02-26T00:46:50.304Z,99.90
2023-02-26T00:49:47.541Z,99.90
2023-02-26T00:52:29.270Z,99.90
2023-02-26T00:54:56.011Z,99.90
2023-02-26T00:57:22.950Z,99.90
2023-02-26T00:59:49.708Z,99.90
2023-02-26T01:02:16.359Z,99.90
2023-02-26T01:04:43.351Z,99.90
2023-02-26T01:07:10.668Z,99.90
2023-02-26T01:09:38.428Z,99.90
2023-02-26T01:12:11.181Z,99.90
2023-02-26T01:14:38.056Z,99.90
2023-02-26T01:17:29.911Z,99.90
2023-02-26T01:20:12.837Z,99.90
2023-02-26T01:22:45.760Z,99.90
2023-02-26T01:25:17.671Z,99.90
2023-02-26T01:27:44.603Z,99.90
2023-02-26T01:30:11.731Z,99.90
2023-02-26T01:32:45.801Z,99.90
2023-02-26T01:35:45.560Z,99.90
2023-02-26T01:38:17.967Z,99.90
2023-02-26T01:41:09.376Z,99.90
2023-02-26T01:43:55.426Z,99.90
2023-02-26T01:46:32.352Z,99.90
2023-02-26T01:49:00.765Z,99.90
2023-02-26T01:51:50.540Z,99.90
2023-02-26T01:54:45.410Z,99.90
2023-02-26T01:57:15.775Z,99.90
2023-02-26T01:59:45.355Z,99.90
2023-02-26T02:02:13.473Z,99.90
2023-02-26T02:04:41.981Z,99.90
2023-02-26T02:07:08.760Z,99.90
2023-02-26T02:09:35.694Z,99.90
2023-02-26T02:12:23.959Z,99.90
2023-02-26T02:15:12.112Z,99.90
2023-02-26T02:18:09.221Z,99.90
2023-02-26T02:21:03.779Z,99.90
2023-02-26T02:23:53.202Z,99.90
2023-02-26T02:27:00.337Z,99.90
2023-02-26T02:29:30.081Z,99.90
2023-02-26T02:32:07.120Z,99.90
2023-02-26T02:34:46.344Z,99.90
2023-02-26T02:37:29.544Z,99.90
2023-02-26T02:40:03.519Z,99.90
2023-02-26T02:42:55.919Z,99.90
2023-02-26T02:45:31.791Z,99.90
2023-02-26T02:48:05.331Z,99.90
2023-02-26T02:50:46.485Z,99.90
2023-02-26T02:53:26.380Z,99.90
2023-02-26T02:56:11.626Z,99.90
2023-02-26T02:58:43.698Z,99.90
2023-02-26T03:01:14.832Z,99.90
2023-02-26T03:04:02.770Z,99.90
2023-02-26T03:06:29.488Z,99.90
2023-02-26T03:08:56.279Z,99.90
2023-02-26T03:11:22.934Z,99.90
2023-02-26T03:13:50.829Z,99.90
2023-02-26T03:16:57.068Z,99.90
2023-02-26T03:19:31.256Z,99.90
2023-02-26T03:22:44.176Z,99.90
2023-02-26T03:25:26.194Z,99.90
2023-02-26T03:28:11.776Z,99.90
2023-02-26T03:30:42.510Z,99.90
2023-02-26T03:33:27.539Z,99.90
2023-02-26T03:35:59.635Z,99.90
2023-02-26T03:38:39.227Z,99.90
2023-02-26T03:41:14.450Z,99.90
2023-02-26T03:43:46.340Z,99.90
2023-02-26T03:46:18.571Z,99.90
2023-02-26T03:48:46.925Z,99.90
2023-02-26T03:51:14.710Z,99.90
2023-02-26T03:53:55.827Z,99.90
2023-02-26T03:56:28.589Z,99.90
2023-02-26T03:58:55.338Z,99.90
2023-02-26T04:01:33.500Z,99.90
2023-02-26T04:04:07.914Z,99.90
2023-02-26T04:06:35.036Z,99.90
2023-02-26T04:09:02.286Z,99.90
2023-02-26T04:11:29.976Z,99.90
2023-02-26T04:13:56.682Z,99.90
2023-02-26T04:16:24.272Z,99.90
2023-02-26T04:18:51.192Z,99.90
2023-02-26T04:21:21.450Z,99.90
2023-02-26T04:23:48.175Z,99.90
2023-02-26T04:26:14.893Z,99.90
2023-02-26T04:28:41.885Z,99.90
2023-02-26T04:31:10.408Z,99.90
2023-02-26T04:33:37.590Z,99.90
2023-02-26T04:36:05.064Z,99.90
2023-02-26T04:38:31.791Z,99.90
2023-02-26T04:40:58.515Z,99.90
2023-02-26T04:43:25.194Z,99.90
2023-02-26T04:45:51.949Z,99.90
2023-02-26T04:48:18.796Z,99.90
2023-02-26T04:50:46.089Z,99.90
2023-02-26T04:53:12.942Z,99.90
2023-02-26T04:55:40.981Z,99.90
2023-02-26T04:58:08.487Z,99.90
2023-02-26T05:00:35.364Z,99.90
2023-02-26T05:03:02.027Z,99.90
2023-02-26T05:05:28.710Z,99.90
2023-02-26T05:07:56.781Z,99.90
2023-02-26T05:10:24.458Z,99.90
2023-02-26T05:12:51.361Z,99.90
2023-02-26T05:15:18.449Z,99.90
2023-02-26T05:17:45.121Z,99.90
2023-02-26T05:20:12.117Z,99.90
2023-02-26T05:22:39.311Z,99.90
2023-02-26T05:25:08.064Z,99.90
2023-02-26T05:27:34.968Z,99.90
2023-02-26T05:30:01.848Z,99.90
2023-02-26T05:32:28.610Z,99.90
2023-02-26T05:34:55.320Z,99.90
2023-02-26T05:37:21.987Z,99.90
2023-02-26T05:39:48.752Z,99.90
2023-02-26T05:42:15.427Z,99.90
2023-02-26T05:44:42.124Z,99.90
2023-02-26T05:47:08.860Z,99.90
2023-02-26T05:49:35.525Z,99.90
2023-02-26T05:52:02.331Z,99.90
2023-02-26T05:54:29.028Z,99.90
2023-02-26T05:56:55.935Z,99.90
2023-02-26T05:59:22.890Z,99.90
2023-02-26T06:01:49.625Z,99.90
2023-02-26T06:04:16.521Z,99.90
2023-02-26T06:06:43.273Z,99.90
2023-02-26T06:09:09.971Z,99.90
2023-02-26T06:11:38.375Z,99.90
2023-02-26T06:14:05.227Z,99.90
2023-02-26T06:16:32.825Z,99.90
2023-02-26T06:18:59.631Z,99.90
2023-02-26T06:21:26.386Z,99.90
2023-02-26T06:23:53.112Z,99.90
2023-02-26T06:26:21.028Z,99.90
2023-02-26T06:28:48.809Z,99.90
2023-02-26T06:31:15.528Z,99.90
2023-02-26T06:33:42.353Z,99.90
2023-02-26T06:36:09.171Z,99.90
2023-02-26T06:38:35.881Z,99.90
2023-02-26T06:41:02.603Z,99.90
2023-02-26T06:43:29.293Z,99.90
2023-02-26T06:46:00.085Z,99.90
2023-02-26T06:48:27.225Z,99.90
2023-02-26T06:50:53.921Z,99.90
2023-02-26T06:53:20.830Z,99.90
2023-02-26T06:55:50.970Z,99.90
2023-02-26T06:58:18.153Z,99.90
2023-02-26T07:00:44.926Z,99.90
2023-02-26T07:03:16.271Z,99.90
2023-02-26T07:05:43.148Z,99.90
2023-02-26T07:08:10.119Z,99.90
2023-02-26T07:10:37.389Z,99.90
2023-02-26T07:13:04.378Z,99.90
2023-02-26T07:15:31.348Z,99.90
2023-02-26T07:18:00.115Z,99.90
2023-02-26T07:20:27.821Z,99.90
2023-02-26T07:22:54.515Z,99.90
2023-02-26T07:25:21.646Z,99.90
2023-02-26T07:27:48.329Z,99.90
2023-02-26T07:30:15.893Z,99.90
2023-02-26T07:32:42.651Z,99.90
2023-02-26T07:35:09.917Z,99.90
2023-02-26T07:37:36.691Z,99.90
2023-02-26T07:40:03.683Z,99.90
2023-02-26T07:42:30.313Z,99.90
2023-02-26T07:44:57.003Z,99.90
2023-02-26T07:47:23.706Z,99.90
2023-02-26T07:49:50.367Z,99.90
2023-02-26T07:52:17.027Z,99.90
2023-02-26T07:54:43.742Z,99.90
2023-02-26T07:57:10.426Z,99.90
2023-02-26T07:59:37.101Z,99.90
2023-02-26T08:02:03.830Z,99.90
2023-02-26T08:04:32.925Z,99.90
2023-02-26T08:07:01.500Z,99.90
2023-02-26T08:09:28.440Z,99.90
2023-02-26T08:11:55.066Z,99.90
2023-02-26T08:14:21.750Z,99.90
2023-02-26T08:16:48.733Z,99.90
2023-02-26T08:19:15.765Z,99.90
2023-02-26T08:21:42.408Z,99.90
2023-02-26T08:24:27.916Z,99.90
2023-02-26T08:27:13.718Z,99.90
2023-02-26T08:29:59.564Z,99.90
2023-02-26T08:32:45.990Z,99.90
2023-02-26T08:35:31.634Z,99.90
2023-02-26T08:38:16.868Z,99.90
2023-02-26T08:41:02.218Z,99.90
2023-02-26T08:43:48.409Z,99.90
2023-02-26T08:46:33.731Z,99.90
2023-02-26T08:49:15.488Z,99.90
2023-02-26T08:51:42.194Z,99.90
2023-02-26T08:54:09.762Z,99.90
2023-02-26T08:56:36.416Z,99.90
2023-02-26T08:59:03.137Z,99.90
2023-02-26T09:01:31.027Z,99.90
2023-02-26T09:03:57.706Z,99.90
2023-02-26T09:06:24.612Z,99.90
2023-02-26T09:08:51.641Z,99.90
2023-02-26T09:11:18.345Z,99.90
2023-02-26T09:13:45.083Z,99.90
2023-02-26T09:16:11.891Z,99.90
2023-02-26T09:18:38.730Z,99.90
2023-02-26T09:21:05.669Z,99.90
2023-02-26T09:23:32.468Z,99.90
2023-02-26T09:25:59.127Z,99.90
2023-02-26T09:28:26.148Z,99.90
2023-02-26T09:30:54.751Z,99.90
2023-02-26T09:33:22.119Z,99.90
2023-02-26T09:35:52.784Z,99.90
2023-02-26T09:38:20.242Z,99.90
2023-02-26T09:41:01.580Z,99.90
2023-02-26T09:43:37.281Z,99.90
2023-02-26T09:46:25.309Z,99.90
2023-02-26T09:48:55.990Z,99.90
2023-02-26T09:51:22.867Z,99.90
2023-02-26T09:53:50.476Z,99.90
2023-02-26T09:56:25.254Z,99.90
2023-02-26T09:58:53.982Z,99.90
2023-02-26T10:01:34.599Z,99.90
2023-02-26T10:04:13.460Z,99.90
2023-02-26T10:06:52.392Z,99.90
2023-02-26T10:10:01.760Z,99.90
2023-02-26T10:12:32.252Z,99.90
2023-02-26T10:15:00.916Z,99.90
2023-02-26T10:17:45.628Z,99.90
2023-02-26T10:20:18.281Z,99.90
2023-02-26T10:22:50.986Z,99.90
2023-02-26T10:25:22.996Z,99.90
2023-02-26T10:28:18.560Z,99.90
2023-02-26T10:30:52.738Z,99.90
2023-02-26T10:33:38.781Z,99.90
2023-02-26T10:36:19.204Z,99.90
2023-02-26T10:38:49.471Z,99.90
2023-02-26T10:41:20.312Z,99.90
2023-02-26T10:43:56.934Z,99.90
2023-02-26T10:46:39.522Z,99.90
2023-02-26T10:49:24.835Z,99.90
2023-02-26T10:51:52.961Z,99.90
2023-02-26T10:54:48.027Z,99.90
2023-02-26T10:57:32.358Z,99.90
2023-02-26T11:00:00.937Z,99.90
2023-02-26T11:02:46.138Z,99.90
2023-02-26T11:05:22.985Z,99.90
2023-02-26T11:07:59.101Z,99.90
2023-02-26T11:10:31.343Z,99.90
2023-02-26T11:12:58.730Z,99.90
2023-02-26T11:15:30.120Z,99.90
2023-02-26T11:17:58.202Z,99.90
2023-02-26T11:20:38.017Z,99.90
2023-02-26T11:23:07.857Z,99.90
2023-02-26T11:25:36.197Z,99.90
2023-02-26T11:28:08.723Z,99.90
2023-02-26T11:30:38.228Z,99.90
2023-02-26T11:33:14.896Z,99.90
2023-02-26T11:35:41.657Z,99.90
2023-02-26T11:38:19.673Z,99.90
2023-02-26T11:40:49.781Z,99.90
2023-02-26T11:43:19.377Z,99.90
2023-02-26T11:45:49.663Z,99.90
2023-02-26T11:48:23.921Z,99.90
2023-02-26T11:50:55.507Z,99.90
2023-02-26T11:53:37.140Z,99.90
2023-02-26T11:56:12.995Z,99.90
2023-02-26T11:58:41.655Z,99.90
2023-02-26T12:01:10.770Z,99.90
2023-02-26T12:03:42.372Z,99.90
2023-02-26T12:06:20.345Z,99.90
2023-02-26T12:08:47.851Z,99.90
2023-02-26T12:11:51.885Z,99.90
2023-02-26T12:14:21.421Z,99.90
2023-02-26T12:16:55.972Z,99.90
2023-02-26T12:20:15.046Z,99.90
2023-02-26T12:23:12.741Z,99.90
2023-02-26T12:26:01.041Z,99.90
2023-02-26T12:28:46.556Z,99.90
2023-02-26T12:31:39.841Z,99.90
2023-02-26T12:34:24.732Z,99.90
2023-02-26T12:37:09.896Z,99.90
2023-02-26T12:39:48.670Z,99.90
2023-02-26T12:42:32.806Z,99.90
2023-02-26T12:45:22.022Z,99.90
2023-02-26T12:47:57.804Z,99.90
2023-02-26T12:50:40.840Z,99.90
2023-02-26T12:53:15.220Z,99.90
2023-02-26T12:55:56.977Z,99.90
2023-02-26T12:58:26.907Z,99.90
2023-02-26T13:01:13.670Z,99.90
2023-02-26T13:03:55.468Z,99.90
2023-02-26T13:06:44.881Z,99.90
2023-02-26T13:09:37.233Z,99.90
2023-02-26T13:12:30.619Z,99.90
2023-02-26T13:15:11.643Z,99.90
2023-02-26T13:18:02.678Z,99.90
2023-02-26T13:20:29.830Z,99.90
2023-02-26T13:23:12.797Z,99.90
2023-02-26T13:25:48.799Z,99.90
2023-02-26T13:28:42.498Z,99.90
2023-02-26T13:31:27.560Z,99.90
2023-02-26T13:33:54.796Z,99.90
2023-02-26T13:36:22.487Z,99.90
2023-02-26T13:39:21.762Z,99.90
2023-02-26T13:42:03.384Z,99.90
2023-02-26T13:44:36.877Z,99.90
2023-02-26T13:47:03.564Z,99.90
2023-02-26T13:49:50.635Z,99.90
2023-02-26T13:52:29.599Z,99.90
2023-02-26T13:54:59.506Z,99.90
2023-02-26T13:57:48.598Z,99.90
2023-02-26T14:00:35.122Z,99.90
2023-02-26T14:03:12.343Z,99.90
2023-02-26T14:05:48.191Z,99.90
2023-02-26T14:08:18.373Z,99.90
2023-02-26T14:10:47.666Z,99.90
2023-02-26T14:13:23.036Z,99.90
2023-02-26T14:15:59.539Z,99.90
2023-02-26T14:18:26.781Z,99.90
2023-02-26T14:20:53.893Z,99.90
2023-02-26T14:23:32.049Z,99.90
2023-02-26T14:26:05.636Z,99.90
2023-02-26T14:29:05.260Z,99.90
2023-02-26T14:31:50.287Z,99.90
2023-02-26T14:34:26.935Z,99.90
2023-02-26T14:36:56.499Z,99.70
2023-02-26T14:39:43.872Z,99.40
2023-02-26T14:42:19.325Z,99.20
2023-02-26T14:44:53.619Z,99.30
2023-02-26T14:47:20.525Z,99.20
2023-02-26T14:49:49.794Z,99.00
2023-02-26T14:52:41.412Z,99.00
2023-02-26T14:55:28.428Z,99.00
2023-02-26T14:58:17.616Z,99.10
2023-02-26T15:01:53.211Z,99.10
2023-02-26T15:04:57.490Z,99.20
2023-02-26T15:07:51.438Z,99.30
2023-02-26T15:10:36.540Z,99.10
2023-02-26T15:13:37.258Z,98.80
2023-02-26T15:16:19.008Z,98.80
2023-02-26T15:19:04.370Z,99.00
2023-02-26T15:21:57.784Z,98.60
2023-02-26T15:24:24.586Z,98.60
2023-02-26T15:26:54.951Z,98.80
2023-02-26T15:29:29.245Z,98.80
2023-02-26T15:32:01.301Z,99.20
2023-02-26T15:34:28.335Z,98.90
2023-02-26T15:36:57.914Z,99.10
2023-02-26T15:39:25.389Z,99.00
2023-02-26T15:41:54.425Z,99.10
2023-02-26T15:44:27.588Z,99.20
2023-02-26T15:46:58.228Z,99.30
2023-02-26T15:49:43.518Z,99.30
2023-02-26T15:52:18.393Z,98.90
2023-02-26T15:54:49.926Z,98.90
2023-02-26T15:57:17.426Z,98.70
2023-02-26T15:59:48.937Z,98.70
2023-02-26T16:02:19.715Z,98.50
2023-02-26T16:04:46.462Z,98.30
2023-02-26T16:07:13.890Z,98.20
2023-02-26T16:09:44.870Z,98.20
2023-02-26T16:12:16.397Z,98.30
2023-02-26T16:14:46.730Z,98.20
2023-02-26T16:17:24.515Z,98.10
2023-02-26T16:19:51.647Z,98.20
2023-02-26T16:22:24.146Z,98.20
2023-02-26T16:25:10.056Z,98.10
2023-02-26T16:27:36.979Z,98.00
2023-02-26T16:30:06.029Z,97.90
2023-02-26T16:32:34.492Z,98.00
2023-02-26T16:35:16.162Z,97.60
2023-02-26T16:37:49.896Z,97.80
2023-02-26T16:40:33.444Z,97.60
2023-02-26T16:43:06.404Z,97.60
2023-02-26T16:45:36.532Z,97.50
2023-02-26T16:48:22.676Z,97.50
2023-02-26T16:51:07.044Z,97.50
2023-02-26T16:53:55.741Z,97.60
2023-02-26T16:56:29.971Z,97.70
2023-02-26T16:59:17.765Z,97.80
2023-02-26T17:01:55.486Z,97.80
2023-02-26T17:04:30.305Z,97.80
2023-02-26T17:06:57.249Z,97.80
2023-02-26T17:09:39.636Z,97.80
2023-02-26T17:12:11.909Z,97.60
2023-02-26T17:14:41.980Z,97.70
2023-02-26T17:17:09.105Z,97.60
2023-02-26T17:19:36.365Z,97.60
2023-02-26T17:22:04.290Z,97.90
2023-02-26T17:24:34.556Z,97.70
2023-02-26T17:27:03.954Z,97.70
2023-02-26T17:29:37.340Z,97.70
2023-02-26T17:32:17.927Z,98.20
2023-02-26T17:34:44.795Z,97.90
2023-02-26T17:37:15.211Z,97.80
2023-02-26T17:39:42.948Z,97.70
2023-02-26T17:42:14.633Z,97.70
2023-02-26T17:44:42.304Z,97.80
2023-02-26T17:47:16.961Z,97.80
2023-02-26T17:49:44.207Z,97.80
2023-02-26T17:52:11.040Z,97.70
2023-02-26T17:54:37.753Z,97.50
2023-02-26T17:57:05.604Z,97.40
2023-02-26T17:59:32.564Z,97.40
2023-02-26T18:01:59.651Z,97.40
2023-02-26T18:04:27.054Z,97.40
2023-02-26T18:06:53.769Z,97.40
2023-02-26T18:09:20.520Z,97.40
2023-02-26T18:11:47.177Z,97.40
2023-02-26T18:14:13.850Z,97.50
2023-02-26T18:16:42.393Z,97.50
2023-02-26T18:19:10.999Z,97.40
2023-02-26T18:21:37.657Z,97.40
2023-02-26T18:24:04.707Z,97.30
2023-02-26T18:26:32.954Z,97.30
2023-02-26T18:28:59.917Z,97.30
2023-02-26T18:31:35.236Z,97.20
2023-02-26T18:34:03.132Z,97.20
2023-02-26T18:36:35.491Z,96.90
2023-02-26T18:39:03.653Z,96.80
2023-02-26T18:41:30.976Z,96.70
2023-02-26T18:43:57.867Z,96.80
2023-02-26T18:46:24.824Z,96.60
2023-02-26T18:48:51.743Z,96.70
2023-02-26T18:51:18.555Z,96.70
2023-02-26T18:53:45.363Z,96.60
2023-02-26T18:56:12.098Z,96.50
2023-02-26T18:58:40.429Z,96.40
2023-02-26T19:01:07.512Z,96.70
2023-02-26T19:03:34.219Z,96.40
2023-02-26T19:06:03.816Z,96.50
2023-02-26T19:08:31.065Z,96.50
2023-02-26T19:10:58.182Z,96.60
2023-02-26T19:13:25.149Z,96.70
2023-02-26T19:15:52.074Z,96.80
2023-02-26T19:18:18.939Z,96.90
2023-02-26T19:20:45.814Z,96.90
2023-02-26T19:23:12.784Z,96.90
2023-02-26T19:25:42.057Z,96.80
2023-02-26T19:28:09.561Z,96.80
2023-02-26T19:30:36.572Z,96.80
2023-02-26T19:33:03.272Z,96.80
2023-02-26T19:35:30.736Z,96.80
2023-02-26T19:37:57.533Z,96.70
2023-02-26T19:40:24.956Z,96.70
2023-02-26T19:42:51.655Z,96.50
2023-02-26T19:45:18.853Z,96.60
2023-02-26T19:47:45.568Z,96.70
2023-02-26T19:50:14.226Z,96.60
2023-02-26T19:52:41.368Z,96.30
2023-02-26T19:55:09.477Z,96.40
2023-02-26T19:57:36.760Z,96.50
2023-02-26T20:00:04.950Z,96.60
2023-02-26T20:02:31.649Z,96.60
2023-02-26T20:04:58.374Z,96.70
2023-02-26T20:07:26.186Z,96.60
2023-02-26T20:09:53.100Z,96.50
2023-02-26T20:12:19.946Z,96.50
2023-02-26T20:14:46.694Z,96.50
2023-02-26T20:17:13.379Z,96.60
2023-02-26T20:19:40.238Z,96.60
2023-02-26T20:22:06.890Z,96.60
2023-02-26T20:24:33.623Z,96.70
2023-02-26T20:27:00.345Z,96.80
2023-02-26T20:29:27.117Z,96.70
2023-02-26T20:31:54.089Z,96.70
2023-02-26T20:34:21.125Z,96.70
2023-02-26T20:36:49.897Z,96.60
2023-02-26T20:39:19.072Z,96.50
2023-02-26T20:41:45.790Z,96.50
2023-02-26T20:44:12.469Z,96.50
2023-02-26T20:46:39.344Z,96.50
2023-02-26T20:49:11.316Z,96.50
2023-02-26T20:51:42.126Z,96.60
2023-02-26T20:54:12.717Z,96.60
2023-02-26T20:56:39.408Z,96.60
2023-02-26T20:59:06.118Z,96.70
2023-02-26T21:01:35.625Z,96.80
2023-02-26T21:04:08.158Z,96.80
2023-02-26T21:06:35.801Z,96.90
2023-02-26T21:09:03.431Z,97.00
2023-02-26T21:11:31.201Z,97.00
2023-02-26T21:13:58.929Z,97.10
2023-02-26T21:16:27.769Z,97.40
2023-02-26T21:18:55.641Z,97.20
2023-02-26T21:21:22.659Z,97.30
2023-02-26T21:23:51.272Z,97.30
2023-02-26T21:26:17.963Z,97.30
2023-02-26T21:28:48.399Z,97.40
2023-02-26T21:31:16.554Z,97.40
2023-02-26T21:33:44.048Z,97.40
2023-02-26T21:36:11.507Z,97.50
2023-02-26T21:38:38.478Z,97.50
2023-02-26T21:41:05.537Z,97.60
2023-02-26T21:43:32.292Z,97.60
2023-02-26T21:45:59.009Z,98.00
2023-02-26T21:48:25.821Z,97.70
2023-02-26T21:50:53.683Z,97.80
2023-02-26T21:53:20.354Z,97.80
2023-02-26T21:55:47.136Z,97.80
2023-02-26T21:58:13.828Z,97.80
2023-02-26T22:00:40.577Z,97.90
2023-02-26T22:03:07.249Z,97.90
2023-02-26T22:05:33.937Z,97.90
2023-02-26T22:08:00.634Z,98.00
2023-02-26T22:10:27.290Z,98.00
2023-02-26T22:12:53.983Z,98.10
2023-02-26T22:15:21.263Z,98.10
2023-02-26T22:17:47.944Z,98.20
2023-02-26T22:20:14.595Z,98.20
2023-02-26T22:22:41.456Z,98.30
2023-02-26T22:25:09.123Z,98.40
2023-02-26T22:27:35.865Z,98.40
2023-02-26T22:30:02.591Z,98.40
2023-02-26T22:32:29.374Z,98.40
2023-02-26T22:34:56.191Z,98.30
2023-02-26T22:37:23.069Z,98.30
2023-02-26T22:39:49.758Z,98.30
2023-02-26T22:42:16.467Z,98.40
2023-02-26T22:44:43.368Z,98.30
2023-02-26T22:47:10.616Z,98.40
2023-02-26T22:49:37.440Z,98.40
2023-02-26T22:52:05.907Z,98.40
2023-02-26T22:54:34.221Z,98.40
2023-02-26T22:57:00.962Z,98.40
2023-02-26T22:59:27.650Z,98.40
2023-02-26T23:01:55.064Z,98.40
2023-02-26T23:04:21.863Z,98.50
2023-02-26T23:06:48.638Z,98.50
2023-02-26T23:09:15.439Z,98.60
2023-02-26T23:11:42.284Z,98.60
2023-02-26T23:14:09.029Z,98.60
2023-02-26T23:16:35.685Z,98.70
2023-02-26T23:19:02.729Z,98.70
2023-02-26T23:21:30.873Z,98.80
2023-02-26T23:23:58.057Z,98.70
2023-02-26T23:26:25.325Z,98.80
2023-02-26T23:28:52.737Z,98.80
2023-02-26T23:31:19.558Z,98.90
2023-02-26T23:33:46.394Z,99.00
2023-02-26T23:36:13.103Z,99.10
2023-02-26T23:38:39.732Z,99.20
2023-02-26T23:41:06.849Z,99.20
2023-02-26T23:43:33.923Z,99.30
2023-02-26T23:46:00.883Z,99.40
2023-02-26T23:48:27.632Z,99.80
2023-02-26T23:50:55.816Z,99.60
2023-02-26T23:53:22.693Z,99.70
2023-02-26T23:55:52.417Z,99.80
2023-02-26T23:58:19.097Z,99.80
